sensor_id;sensor_type;location;lat;lon;timestamp;pressure;altitude;pressure_sealevel;temperature;humidity
20013;BME280;10167;42.852;23.042;2023-04-20T00:00:22;94536.53;;;10.77;100.00
20013;BME280;10167;42.852;23.042;2023-04-20T00:02:51;94531.84;;;10.84;100.00
20013;BME280;10167;42.852;23.042;2023-04-20T00:05:21;94537.94;;;10.84;100.00
20013;BME280;10167;42.852;23.042;2023-04-20T00:07:51;94540.31;;;10.81;100.00
20013;BME280;10167;42.852;23.042;2023-04-20T00:10:21;94537.81;;;10.74;100.00
20013;BME280;10167;42.852;23.042;2023-04-20T00:12:50;94532.72;;;10.68;100.00
20013;BME280;10167;42.852;23.042;2023-04-20T00:15:19;94531.25;;;10.77;100.00
20013;BME280;10167;42.852;23.042;2023-04-20T00:17:50;94532.66;;;10.84;100.00
20013;BME280;10167;42.852;23.042;2023-04-20T00:20:20;94531.56;;;10.80;100.00
20013;BME280;10167;42.852;23.042;2023-04-20T00:22:49;94521.13;;;10.74;100.00
20013;BME280;10167;42.852;23.042;2023-04-20T00:25:19;94524.22;;;10.66;100.00
20013;BME280;10167;42.852;23.042;2023-04-20T00:27:48;94527.47;;;10.51;100.00
20013;BME280;10167;42.852;23.042;2023-04-20T00:30:17;94523.91;;;10.62;100.00
20013;BME280;10167;42.852;23.042;2023-04-20T00:32:47;94520.41;;;10.57;100.00
20013;BME280;10167;42.852;23.042;2023-04-20T00:35:18;94528.16;;;10.63;100.00
20013;BME280;10167;42.852;23.042;2023-04-20T00:37:47;94513.94;;;10.47;100.00
20013;BME280;10167;42.852;23.042;2023-04-20T00:40:17;94517.69;;;10.51;100.00
20013;BME280;10167;42.852;23.042;2023-04-20T00:42:46;94521.13;;;10.52;100.00
20013;BME280;10167;42.852;23.042;2023-04-20T00:45:15;94521.19;;;10.57;100.00
20013;BME280;10167;42.852;23.042;2023-04-20T00:47:44;94519.47;;;10.46;100.00
20013;BME280;10167;42.852;23.042;2023-04-20T00:50:16;94521.97;;;10.36;100.00
20013;BME280;10167;42.852;23.042;2023-04-20T00:52:47;94516.06;;;10.50;100.00
20013;BME280;10167;42.852;23.042;2023-04-20T00:55:16;94516.59;;;10.47;100.00
20013;BME280;10167;42.852;23.042;2023-04-20T00:57:47;94514.53;;;10.33;100.00
20013;BME280;10167;42.852;23.042;2023-04-20T01:00:17;94503.13;;;10.32;100.00
20013;BME280;10167;42.852;23.042;2023-04-20T01:02:48;94506.09;;;10.36;100.00
20013;BME280;10167;42.852;23.042;2023-04-20T01:05:17;94508.50;;;10.37;100.00
20013;BME280;10167;42.852;23.042;2023-04-20T01:07:49;94508.56;;;10.42;100.00
20013;BME280;10167;42.852;23.042;2023-04-20T01:10:18;94506.91;;;10.36;100.00
20013;BME280;10167;42.852;23.042;2023-04-20T01:12:47;94499.13;;;10.30;100.00
20013;BME280;10167;42.852;23.042;2023-04-20T01:15:16;94501.72;;;10.25;100.00
20013;BME280;10167;42.852;23.042;2023-04-20T01:17:46;94495.38;;;10.26;100.00
20013;BME280;10167;42.852;23.042;2023-04-20T01:20:16;94497.47;;;10.24;100.00
20013;BME280;10167;42.852;23.042;2023-04-20T01:22:49;94490.47;;;10.17;100.00
20013;BME280;10167;42.852;23.042;2023-04-20T01:25:21;94498.09;;;10.14;100.00
20013;BME280;10167;42.852;23.042;2023-04-20T01:27:51;94490.16;;;10.14;100.00
20013;BME280;10167;42.852;23.042;2023-04-20T01:30:21;94487.91;;;10.06;100.00
20013;BME280;10167;42.852;23.042;2023-04-20T01:32:50;94484.97;;;10.02;100.00
20013;BME280;10167;42.852;23.042;2023-04-20T01:35:19;94487.53;;;9.97;100.00
20013;BME280;10167;42.852;23.042;2023-04-20T01:37:50;94484.81;;;9.92;100.00
20013;BME280;10167;42.852;23.042;2023-04-20T01:40:19;94486.91;;;9.90;100.00
20013;BME280;10167;42.852;23.042;2023-04-20T01:42:48;94488.66;;;10.01;100.00
20013;BME280;10167;42.852;23.042;2023-04-20T01:45:18;94486.72;;;9.97;100.00
20013;BME280;10167;42.852;23.042;2023-04-20T01:47:47;94475.28;;;9.91;100.00
20013;BME280;10167;42.852;23.042;2023-04-20T01:50:17;94480.59;;;9.91;100.00
20013;BME280;10167;42.852;23.042;2023-04-20T01:52:46;94476.09;;;9.92;100.00
20013;BME280;10167;42.852;23.042;2023-04-20T01:55:18;94472.88;;;9.90;100.00
20013;BME280;10167;42.852;23.042;2023-04-20T01:57:47;94473.34;;;9.87;100.00
20013;BME280;10167;42.852;23.042;2023-04-20T02:00:20;94481.06;;;9.88;100.00
20013;BME280;10167;42.852;23.042;2023-04-20T02:02:49;94475.94;;;9.81;100.00
20013;BME280;10167;42.852;23.042;2023-04-20T02:05:18;94479.13;;;9.83;100.00
20013;BME280;10167;42.852;23.042;2023-04-20T02:07:48;94470.09;;;9.79;100.00
20013;BME280;10167;42.852;23.042;2023-04-20T02:10:19;94467.44;;;9.79;100.00
20013;BME280;10167;42.852;23.042;2023-04-20T02:12:48;94478.03;;;9.79;100.00
20013;BME280;10167;42.852;23.042;2023-04-20T02:15:19;94477.22;;;9.79;100.00
20013;BME280;10167;42.852;23.042;2023-04-20T02:17:49;94465.50;;;9.75;100.00
20013;BME280;10167;42.852;23.042;2023-04-20T02:20:19;94475.47;;;9.68;100.00
20013;BME280;10167;42.852;23.042;2023-04-20T02:22:49;94465.59;;;9.63;100.00
20013;BME280;10167;42.852;23.042;2023-04-20T02:25:19;94474.66;;;9.67;100.00
20013;BME280;10167;42.852;23.042;2023-04-20T02:27:49;94472.50;;;9.64;100.00
20013;BME280;10167;42.852;23.042;2023-04-20T02:30:18;94477.22;;;9.62;100.00
20013;BME280;10167;42.852;23.042;2023-04-20T02:32:47;94466.06;;;9.60;100.00
20013;BME280;10167;42.852;23.042;2023-04-20T02:35:16;94478.50;;;9.60;100.00
20013;BME280;10167;42.852;23.042;2023-04-20T02:37:46;94474.19;;;9.54;100.00
20013;BME280;10167;42.852;23.042;2023-04-20T02:40:15;94468.88;;;9.54;100.00
20013;BME280;10167;42.852;23.042;2023-04-20T02:42:47;94466.16;;;9.48;100.00
20013;BME280;10167;42.852;23.042;2023-04-20T02:45:16;94465.91;;;9.50;100.00
20013;BME280;10167;42.852;23.042;2023-04-20T02:47:46;94464.81;;;9.46;100.00
20013;BME280;10167;42.852;23.042;2023-04-20T02:50:16;94462.41;;;9.44;100.00
20013;BME280;10167;42.852;23.042;2023-04-20T02:53:06;94452.41;;;9.46;100.00
20013;BME280;10167;42.852;23.042;2023-04-20T02:55:36;94460.47;;;9.40;100.00
20013;BME280;10167;42.852;23.042;2023-04-20T02:58:19;94472.66;;;9.41;100.00
20013;BME280;10167;42.852;23.042;2023-04-20T03:01:10;94461.75;;;9.37;100.00
20013;BME280;10167;42.852;23.042;2023-04-20T03:03:40;94460.41;;;9.35;100.00
20013;BME280;10167;42.852;23.042;2023-04-20T03:06:11;94468.41;;;9.40;100.00
20013;BME280;10167;42.852;23.042;2023-04-20T03:08:45;94466.66;;;9.45;100.00
20013;BME280;10167;42.852;23.042;2023-04-20T03:11:44;94470.34;;;9.44;100.00
20013;BME280;10167;42.852;23.042;2023-04-20T03:14:25;94476.09;;;9.41;100.00
20013;BME280;10167;42.852;23.042;2023-04-20T03:16:55;94476.59;;;9.55;100.00
20013;BME280;10167;42.852;23.042;2023-04-20T03:19:24;94471.34;;;9.60;100.00
20013;BME280;10167;42.852;23.042;2023-04-20T03:21:53;94477.44;;;9.61;100.00
20013;BME280;10167;42.852;23.042;2023-04-20T03:24:22;94481.94;;;9.60;100.00
20013;BME280;10167;42.852;23.042;2023-04-20T03:26:53;94478.50;;;9.60;100.00
20013;BME280;10167;42.852;23.042;2023-04-20T03:29:35;94477.72;;;9.59;100.00
20013;BME280;10167;42.852;23.042;2023-04-20T03:32:05;94483.78;;;9.60;100.00
20013;BME280;10167;42.852;23.042;2023-04-20T03:34:34;94480.19;;;9.66;100.00
20013;BME280;10167;42.852;23.042;2023-04-20T03:37:03;94476.84;;;9.70;100.00
20013;BME280;10167;42.852;23.042;2023-04-20T03:39:33;94479.38;;;9.65;100.00
20013;BME280;10167;42.852;23.042;2023-04-20T03:42:03;94475.22;;;9.69;100.00
20013;BME280;10167;42.852;23.042;2023-04-20T03:44:32;94474.97;;;9.71;100.00
20013;BME280;10167;42.852;23.042;2023-04-20T03:47:08;94473.06;;;9.66;100.00
20013;BME280;10167;42.852;23.042;2023-04-20T03:49:37;94485.72;;;9.64;100.00
20013;BME280;10167;42.852;23.042;2023-04-20T03:52:07;94482.25;;;9.64;100.00
20013;BME280;10167;42.852;23.042;2023-04-20T03:54:36;94485.28;;;9.72;100.00
20013;BME280;10167;42.852;23.042;2023-04-20T03:57:05;94481.38;;;9.75;100.00
20013;BME280;10167;42.852;23.042;2023-04-20T03:59:34;94484.91;;;9.80;100.00
20013;BME280;10167;42.852;23.042;2023-04-20T04:02:05;94482.66;;;9.89;100.00
20013;BME280;10167;42.852;23.042;2023-04-20T04:04:36;94487.78;;;9.79;100.00
20013;BME280;10167;42.852;23.042;2023-04-20T04:07:05;94485.38;;;9.94;100.00
20013;BME280;10167;42.852;23.042;2023-04-20T04:09:37;94491.22;;;9.96;100.00
20013;BME280;10167;42.852;23.042;2023-04-20T04:12:07;94480.72;;;10.01;100.00
20013;BME280;10167;42.852;23.042;2023-04-20T04:14:37;94488.34;;;9.98;100.00
20013;BME280;10167;42.852;23.042;2023-04-20T04:17:09;94491.22;;;9.96;100.00
20013;BME280;10167;42.852;23.042;2023-04-20T04:19:42;94490.50;;;10.01;100.00
20013;BME280;10167;42.852;23.042;2023-04-20T04:22:11;94491.38;;;10.06;100.00
20013;BME280;10167;42.852;23.042;2023-04-20T04:24:53;94490.16;;;10.14;100.00
20013;BME280;10167;42.852;23.042;2023-04-20T04:27:23;94486.97;;;10.12;100.00
20013;BME280;10167;42.852;23.042;2023-04-20T04:29:55;94497.06;;;10.15;100.00
20013;BME280;10167;42.852;23.042;2023-04-20T04:32:25;94492.09;;;10.18;100.00
20013;BME280;10167;42.852;23.042;2023-04-20T04:34:55;94495.63;;;10.24;100.00
20013;BME280;10167;42.852;23.042;2023-04-20T04:37:30;94498.75;;;10.21;100.00
20013;BME280;10167;42.852;23.042;2023-04-20T04:40:00;94501.97;;;10.23;100.00
20013;BME280;10167;42.852;23.042;2023-04-20T04:42:35;94503.25;;;10.21;100.00
20013;BME280;10167;42.852;23.042;2023-04-20T04:45:07;94499.78;;;10.20;100.00
20013;BME280;10167;42.852;23.042;2023-04-20T04:47:40;94494.81;;;10.24;100.00
20013;BME280;10167;42.852;23.042;2023-04-20T04:50:12;94505.47;;;10.29;100.00
20013;BME280;10167;42.852;23.042;2023-04-20T04:52:41;94505.47;;;10.29;100.00
20013;BME280;10167;42.852;23.042;2023-04-20T04:55:10;94506.25;;;10.29;100.00
20013;BME280;10167;42.852;23.042;2023-04-20T04:57:42;94506.81;;;10.31;100.00
20013;BME280;10167;42.852;23.042;2023-04-20T05:00:13;94507.50;;;10.22;100.00
20013;BME280;10167;42.852;23.042;2023-04-20T05:02:43;94506.50;;;10.28;100.00
20013;BME280;10167;42.852;23.042;2023-04-20T05:05:14;94513.63;;;10.27;100.00
20013;BME280;10167;42.852;23.042;2023-04-20T05:07:43;94518.22;;;10.32;100.00
20013;BME280;10167;42.852;23.042;2023-04-20T05:10:12;94521.09;;;10.30;100.00
20013;BME280;10167;42.852;23.042;2023-04-20T05:12:41;94512.44;;;10.35;100.00
20013;BME280;10167;42.852;23.042;2023-04-20T05:15:11;94511.69;;;10.39;100.00
20013;BME280;10167;42.852;23.042;2023-04-20T05:17:40;94518.78;;;10.34;100.00
20013;BME280;10167;42.852;23.042;2023-04-20T05:20:10;94513.84;;;10.42;100.00
20013;BME280;10167;42.852;23.042;2023-04-20T05:22:41;94512.81;;;10.43;100.00
20013;BME280;10167;42.852;23.042;2023-04-20T05:25:11;94515.09;;;10.35;100.00
20013;BME280;10167;42.852;23.042;2023-04-20T05:27:41;94515.78;;;10.47;100.00
20013;BME280;10167;42.852;23.042;2023-04-20T05:30:10;94521.06;;;10.47;100.00
20013;BME280;10167;42.852;23.042;2023-04-20T05:32:49;94525.63;;;10.51;100.00
20013;BME280;10167;42.852;23.042;2023-04-20T05:35:19;94519.47;;;10.46;100.00
20013;BME280;10167;42.852;23.042;2023-04-20T05:37:50;94524.91;;;10.56;100.00
20013;BME280;10167;42.852;23.042;2023-04-20T05:40:19;94530.00;;;10.63;100.00
20013;BME280;10167;42.852;23.042;2023-04-20T05:42:48;94516.22;;;10.61;100.00
20013;BME280;10167;42.852;23.042;2023-04-20T05:45:18;94516.22;;;10.61;100.00
20013;BME280;10167;42.852;23.042;2023-04-20T05:47:53;94521.53;;;10.61;100.00
20013;BME280;10167;42.852;23.042;2023-04-20T05:50:23;94521.34;;;10.67;100.00
20013;BME280;10167;42.852;23.042;2023-04-20T05:52:53;94524.22;;;10.66;100.00
20013;BME280;10167;42.852;23.042;2023-04-20T05:55:23;94529.28;;;10.67;100.00
20013;BME280;10167;42.852;23.042;2023-04-20T05:57:52;94526.16;;;10.70;100.00
20013;BME280;10167;42.852;23.042;2023-04-20T06:00:21;94530.88;;;10.68;100.00
20013;BME280;10167;42.852;23.042;2023-04-20T06:02:52;94537.03;;;10.74;100.00
20013;BME280;10167;42.852;23.042;2023-04-20T06:05:22;94540.72;;;10.73;100.00
20013;BME280;10167;42.852;23.042;2023-04-20T06:07:53;94526.44;;;10.74;100.00
20013;BME280;10167;42.852;23.042;2023-04-20T06:10:22;94533.53;;;10.68;100.00
20013;BME280;10167;42.852;23.042;2023-04-20T06:12:51;94529.50;;;10.66;100.00
20013;BME280;10167;42.852;23.042;2023-04-20T06:15:20;94537.81;;;10.74;100.00
20013;BME280;10167;42.852;23.042;2023-04-20T06:17:50;94535.75;;;10.76;100.00
20013;BME280;10167;42.852;23.042;2023-04-20T06:20:19;94540.00;;;10.77;100.00
20013;BME280;10167;42.852;23.042;2023-04-20T06:22:48;94532.84;;;10.78;100.00
20013;BME280;10167;42.852;23.042;2023-04-20T06:25:19;94542.63;;;10.77;100.00
20013;BME280;10167;42.852;23.042;2023-04-20T06:27:48;94540.00;;;10.77;100.00
20013;BME280;10167;42.852;23.042;2023-04-20T06:30:19;94540.31;;;10.81;100.00
20013;BME280;10167;42.852;23.042;2023-04-20T06:32:48;94543.13;;;10.74;100.00
20013;BME280;10167;42.852;23.042;2023-04-20T06:35:18;94542.97;;;10.81;100.00
20013;BME280;10167;42.852;23.042;2023-04-20T06:37:48;94543.94;;;10.75;100.00
20013;BME280;10167;42.852;23.042;2023-04-20T06:40:17;94545.59;;;10.81;100.00
20013;BME280;10167;42.852;23.042;2023-04-20T06:42:47;94542.03;;;10.92;100.00
20013;BME280;10167;42.852;23.042;2023-04-20T06:45:17;94543.06;;;10.91;100.00
20013;BME280;10167;42.852;23.042;2023-04-20T06:47:47;94544.97;;;10.96;100.00
20013;BME280;10167;42.852;23.042;2023-04-20T06:50:16;94548.94;;;10.93;100.00
20013;BME280;10167;42.852;23.042;2023-04-20T06:52:45;94551.16;;;11.01;100.00
20013;BME280;10167;42.852;23.042;2023-04-20T06:55:16;94546.19;;;11.10;100.00
20013;BME280;10167;42.852;23.042;2023-04-20T06:57:48;94555.19;;;11.09;100.00
20013;BME280;10167;42.852;23.042;2023-04-20T07:00:18;94549.81;;;11.25;100.00
20013;BME280;10167;42.852;23.042;2023-04-20T07:02:48;94554.88;;;11.27;100.00
20013;BME280;10167;42.852;23.042;2023-04-20T07:05:19;94556.34;;;11.40;100.00
20013;BME280;10167;42.852;23.042;2023-04-20T07:07:48;94556.72;;;11.53;100.00
20013;BME280;10167;42.852;23.042;2023-04-20T07:10:18;94558.44;;;11.64;100.00
20013;BME280;10167;42.852;23.042;2023-04-20T07:12:48;94566.47;;;11.75;100.00
20013;BME280;10167;42.852;23.042;2023-04-20T07:15:18;94557.31;;;11.82;100.00
20013;BME280;10167;42.852;23.042;2023-04-20T07:17:47;94563.50;;;11.93;100.00
20013;BME280;10167;42.852;23.042;2023-04-20T07:20:16;94560.16;;;12.08;100.00
20013;BME280;10167;42.852;23.042;2023-04-20T07:22:45;94563.41;;;12.15;100.00
20013;BME280;10167;42.852;23.042;2023-04-20T07:25:15;94563.53;;;12.35;100.00
20013;BME280;10167;42.852;23.042;2023-04-20T07:27:45;94557.00;;;12.48;100.00
20013;BME280;10167;42.852;23.042;2023-04-20T07:30:16;94557.81;;;12.53;100.00
20013;BME280;10167;42.852;23.042;2023-04-20T07:32:45;94563.78;;;12.76;100.00
20013;BME280;10167;42.852;23.042;2023-04-20T07:35:14;94567.25;;;12.76;100.00
20013;BME280;10167;42.852;23.042;2023-04-20T07:37:43;94568.88;;;12.87;100.00
20013;BME280;10167;42.852;23.042;2023-04-20T07:40:13;94563.31;;;12.89;100.00
20013;BME280;10167;42.852;23.042;2023-04-20T07:42:43;94563.59;;;12.92;100.00
20013;BME280;10167;42.852;23.042;2023-04-20T07:45:12;94569.44;;;12.84;100.00
20013;BME280;10167;42.852;23.042;2023-04-20T07:47:43;94569.13;;;12.81;100.00
20013;BME280;10167;42.852;23.042;2023-04-20T07:50:13;94564.91;;;12.90;100.00
20013;BME280;10167;42.852;23.042;2023-04-20T07:52:43;94575.34;;;12.96;100.00
20013;BME280;10167;42.852;23.042;2023-04-20T07:55:12;94574.00;;;12.99;100.00
20013;BME280;10167;42.852;23.042;2023-04-20T07:57:42;94571.13;;;13.10;100.00
20013;BME280;10167;42.852;23.042;2023-04-20T08:00:12;94568.28;;;13.17;100.00
20013;BME280;10167;42.852;23.042;2023-04-20T08:02:46;94574.69;;;13.26;100.00
20013;BME280;10167;42.852;23.042;2023-04-20T08:05:16;94572.19;;;13.09;100.00
20013;BME280;10167;42.852;23.042;2023-04-20T08:07:45;94582.56;;;13.06;100.00
20013;BME280;10167;42.852;23.042;2023-04-20T08:10:14;94570.84;;;13.07;100.00
20013;BME280;10167;42.852;23.042;2023-04-20T08:12:45;94574.31;;;13.13;100.00
20013;BME280;10167;42.852;23.042;2023-04-20T08:15:19;94572.97;;;13.10;100.00
20013;BME280;10167;42.852;23.042;2023-04-20T08:17:49;94571.91;;;13.11;100.00
20013;BME280;10167;42.852;23.042;2023-04-20T08:20:19;94572.13;;;12.99;100.00
20013;BME280;10167;42.852;23.042;2023-04-20T08:22:48;94569.50;;;13.04;100.00
20013;BME280;10167;42.852;23.042;2023-04-20T08:25:19;94580.41;;;13.03;100.00
20013;BME280;10167;42.852;23.042;2023-04-20T08:27:50;94576.94;;;13.02;100.00
20013;BME280;10167;42.852;23.042;2023-04-20T08:30:20;94571.63;;;13.02;100.00
20013;BME280;10167;42.852;23.042;2023-04-20T08:32:50;94571.88;;;12.96;100.00
20013;BME280;10167;42.852;23.042;2023-04-20T08:35:20;94571.28;;;12.89;100.00
20013;BME280;10167;42.852;23.042;2023-04-20T08:37:49;94568.13;;;12.92;100.00
20013;BME280;10167;42.852;23.042;2023-04-20T08:40:18;94569.97;;;12.91;100.00
20013;BME280;10167;42.852;23.042;2023-04-20T08:42:48;94573.94;;;12.89;100.00
20013;BME280;10167;42.852;23.042;2023-04-20T08:45:17;94567.56;;;12.90;100.00
20013;BME280;10167;42.852;23.042;2023-04-20T08:47:47;94568.13;;;12.92;100.00
20013;BME280;10167;42.852;23.042;2023-04-20T08:50:18;94564.13;;;12.84;100.00
20013;BME280;10167;42.852;23.042;2023-04-20T08:52:47;94572.88;;;12.85;100.00
20013;BME280;10167;42.852;23.042;2023-04-20T08:55:17;94565.44;;;12.87;100.00
20013;BME280;10167;42.852;23.042;2023-04-20T08:57:47;94571.59;;;12.92;100.00
20013;BME280;10167;42.852;23.042;2023-04-20T09:00:17;94567.31;;;12.86;100.00
20013;BME280;10167;42.852;23.042;2023-04-20T09:02:50;94565.50;;;12.97;100.00
20013;BME280;10167;42.852;23.042;2023-04-20T09:05:27;94560.84;;;13.19;100.00
20013;BME280;10167;42.852;23.042;2023-04-20T09:07:58;94563.44;;;13.09;100.00
20013;BME280;10167;42.852;23.042;2023-04-20T09:10:39;94570.44;;;13.35;100.00
20013;BME280;10167;42.852;23.042;2023-04-20T09:13:09;94555.00;;;13.27;100.00
20013;BME280;10167;42.852;23.042;2023-04-20T09:15:48;94567.31;;;13.54;100.00
20013;BME280;10167;42.852;23.042;2023-04-20T09:18:18;94566.78;;;13.52;100.00
20013;BME280;10167;42.852;23.042;2023-04-20T09:20:49;94557.75;;;13.68;100.00
20013;BME280;10167;42.852;23.042;2023-04-20T09:23:20;94558.84;;;13.72;100.00
20013;BME280;10167;42.852;23.042;2023-04-20T09:25:50;94552.97;;;13.80;100.00
20013;BME280;10167;42.852;23.042;2023-04-20T09:28:19;94543.69;;;13.98;100.00
20013;BME280;10167;42.852;23.042;2023-04-20T09:30:49;94549.53;;;14.15;100.00
20013;BME280;10167;42.852;23.042;2023-04-20T09:33:18;94554.59;;;14.32;100.00
20013;BME280;10167;42.852;23.042;2023-04-20T09:35:49;94554.84;;;14.25;100.00
20013;BME280;10167;42.852;23.042;2023-04-20T09:38:24;94554.63;;;14.22;100.00
20013;BME280;10167;42.852;23.042;2023-04-20T09:40:53;94546.06;;;14.35;100.00
20013;BME280;10167;42.852;23.042;2023-04-20T09:43:23;94548.75;;;14.40;100.00
20013;BME280;10167;42.852;23.042;2023-04-20T09:45:54;94545.53;;;14.58;100.00
20013;BME280;10167;42.852;23.042;2023-04-20T09:48:24;94543.13;;;14.67;100.00
20013;BME280;10167;42.852;23.042;2023-04-20T09:50:54;94540.44;;;14.72;100.00
20013;BME280;10167;42.852;23.042;2023-04-20T09:53:24;94547.88;;;14.85;100.00
20013;BME280;10167;42.852;23.042;2023-04-20T09:55:54;94544.66;;;14.83;100.00
20013;BME280;10167;42.852;23.042;2023-04-20T09:58:23;94543.09;;;14.72;100.00
20013;BME280;10167;42.852;23.042;2023-04-20T10:00:54;94537.44;;;14.99;100.00
20013;BME280;10167;42.852;23.042;2023-04-20T10:03:23;94532.59;;;15.11;100.00
20013;BME280;10167;42.852;23.042;2023-04-20T10:05:54;94538.09;;;15.30;100.00
20013;BME280;10167;42.852;23.042;2023-04-20T10:08:24;94535.16;;;15.31;100.00
20013;BME280;10167;42.852;23.042;2023-04-20T10:10:53;94528.16;;;15.40;100.00
20013;BME280;10167;42.852;23.042;2023-04-20T10:13:32;94526.53;;;15.44;100.00
20013;BME280;10167;42.852;23.042;2023-04-20T10:16:01;94524.66;;;15.55;100.00
20013;BME280;10167;42.852;23.042;2023-04-20T10:18:31;94526.28;;;15.46;100.00
20013;BME280;10167;42.852;23.042;2023-04-20T10:21:06;94519.25;;;15.65;100.00
20013;BME280;10167;42.852;23.042;2023-04-20T10:23:46;94518.56;;;15.39;100.00
20013;BME280;10167;42.852;23.042;2023-04-20T10:26:15;94516.44;;;15.36;100.00
20013;BME280;10167;42.852;23.042;2023-04-20T10:28:45;94510.97;;;15.67;100.00
20013;BME280;10167;42.852;23.042;2023-04-20T10:31:14;94511.75;;;15.67;100.00
20013;BME280;10167;42.852;23.042;2023-04-20T10:33:51;94515.69;;;15.80;100.00
20013;BME280;10167;42.852;23.042;2023-04-20T10:36:27;94513.28;;;15.78;100.00
20013;BME280;10167;42.852;23.042;2023-04-20T10:38:57;94511.91;;;15.81;100.00
20013;BME280;10167;42.852;23.042;2023-04-20T10:41:28;94503.16;;;15.75;100.00
20013;BME280;10167;42.852;23.042;2023-04-20T10:44:06;94506.19;;;15.97;100.00
20013;BME280;10167;42.852;23.042;2023-04-20T10:46:35;94504.19;;;16.13;100.00
20013;BME280;10167;42.852;23.042;2023-04-20T10:49:05;94502.47;;;16.51;100.00
20013;BME280;10167;42.852;23.042;2023-04-20T10:51:35;94508.19;;;16.45;100.00
20013;BME280;10167;42.852;23.042;2023-04-20T10:54:06;94515.78;;;16.32;98.46
20013;BME280;10167;42.852;23.042;2023-04-20T10:56:37;94509.00;;;16.40;99.44
20013;BME280;10167;42.852;23.042;2023-04-20T10:59:07;94508.75;;;16.37;100.00
20013;BME280;10167;42.852;23.042;2023-04-20T11:01:37;94508.97;;;16.45;97.75
20013;BME280;10167;42.852;23.042;2023-04-20T11:04:06;94517.91;;;16.30;96.93
20013;BME280;10167;42.852;23.042;2023-04-20T11:06:37;94512.91;;;16.24;99.16
20013;BME280;10167;42.852;23.042;2023-04-20T11:09:20;94508.53;;;16.04;98.22
20013;BME280;10167;42.852;23.042;2023-04-20T11:12:00;94517.16;;;15.96;97.71
20013;BME280;10167;42.852;23.042;2023-04-20T11:14:31;94509.22;;;15.86;98.29
20013;BME280;10167;42.852;23.042;2023-04-20T11:17:01;94511.47;;;15.69;98.07
20013;BME280;10167;42.852;23.042;2023-04-20T11:19:31;94513.03;;;15.75;98.13
20013;BME280;10167;42.852;23.042;2023-04-20T11:22:03;94512.84;;;15.66;99.23
20013;BME280;10167;42.852;23.042;2023-04-20T11:24:34;94512.06;;;15.60;99.63
20013;BME280;10167;42.852;23.042;2023-04-20T11:27:04;94508.31;;;15.61;98.22
20013;BME280;10167;42.852;23.042;2023-04-20T11:29:34;94510.88;;;15.77;98.72
20013;BME280;10167;42.852;23.042;2023-04-20T11:32:06;94509.09;;;15.67;98.31
20013;BME280;10167;42.852;23.042;2023-04-20T11:34:37;94513.09;;;15.65;97.32
20013;BME280;10167;42.852;23.042;2023-04-20T11:37:09;94508.28;;;15.67;99.56
20013;BME280;10167;42.852;23.042;2023-04-20T11:39:40;94506.53;;;15.86;100.00
20013;BME280;10167;42.852;23.042;2023-04-20T11:42:09;94504.06;;;15.94;100.00
20013;BME280;10167;42.852;23.042;2023-04-20T11:44:38;94508.59;;;15.94;100.00
20013;BME280;10167;42.852;23.042;2023-04-20T11:47:07;94502.75;;;15.92;100.00
20013;BME280;10167;42.852;23.042;2023-04-20T11:49:37;94509.84;;;16.07;98.23
20013;BME280;10167;42.852;23.042;2023-04-20T11:52:07;94498.28;;;16.45;100.00
20013;BME280;10167;42.852;23.042;2023-04-20T11:54:36;94514.69;;;16.62;98.23
20013;BME280;10167;42.852;23.042;2023-04-20T11:57:06;94502.41;;;17.09;98.44
20013;BME280;10167;42.852;23.042;2023-04-20T11:59:35;94507.78;;;17.28;94.21
20013;BME280;10167;42.852;23.042;2023-04-20T12:02:04;94516.84;;;17.32;95.12
20013;BME280;10167;42.852;23.042;2023-04-20T12:04:33;94516.38;;;17.67;92.91
20013;BME280;10167;42.852;23.042;2023-04-20T12:07:03;94507.34;;;18.14;91.93
20013;BME280;10167;42.852;23.042;2023-04-20T12:09:34;94510.56;;;17.98;90.31
20013;BME280;10167;42.852;23.042;2023-04-20T12:12:05;94501.22;;;17.95;89.85
20013;BME280;10167;42.852;23.042;2023-04-20T12:14:35;94503.78;;;18.19;89.68
20013;BME280;10167;42.852;23.042;2023-04-20T12:17:04;94503.53;;;18.67;86.08
20013;BME280;10167;42.852;23.042;2023-04-20T12:19:33;94498.31;;;18.57;87.15
20013;BME280;10167;42.852;23.042;2023-04-20T12:22:02;94498.34;;;19.39;86.26
20013;BME280;10167;42.852;23.042;2023-04-20T12:24:32;94497.06;;;20.53;84.07
20013;BME280;10167;42.852;23.042;2023-04-20T12:27:02;94497.47;;;21.82;79.82
20013;BME280;10167;42.852;23.042;2023-04-20T12:29:32;94485.69;;;22.47;76.34
20013;BME280;10167;42.852;23.042;2023-04-20T12:32:02;94491.97;;;23.15;71.82
20013;BME280;10167;42.852;23.042;2023-04-20T12:34:31;94482.31;;;22.59;72.36
20013;BME280;10167;42.852;23.042;2023-04-20T12:37:00;94477.34;;;22.87;68.82
20013;BME280;10167;42.852;23.042;2023-04-20T12:39:29;94477.72;;;22.59;68.71
20013;BME280;10167;42.852;23.042;2023-04-20T12:41:58;94476.53;;;21.70;73.45
20013;BME280;10167;42.852;23.042;2023-04-20T12:44:30;94475.50;;;21.23;74.68
20013;BME280;10167;42.852;23.042;2023-04-20T12:46:59;94467.50;;;21.01;76.46
20013;BME280;10167;42.852;23.042;2023-04-20T12:49:29;94461.88;;;20.41;77.73
20013;BME280;10167;42.852;23.042;2023-04-20T12:52:00;94462.25;;;20.03;79.16
20013;BME280;10167;42.852;23.042;2023-04-20T12:54:29;94460.06;;;19.33;81.99
20013;BME280;10167;42.852;23.042;2023-04-20T12:56:58;94451.78;;;18.80;84.09
20013;BME280;10167;42.852;23.042;2023-04-20T12:59:30;94450.25;;;18.46;86.50